sensor_id;sensor_type;location;lat;lon;timestamp;temperature;humidity
7317;DHT22;3699;51.462;6.696;2024-03-23T00:53:48;7.70;99.90
7317;DHT22;3699;51.462;6.696;2024-03-23T00:56:14;8.10;99.90
7317;DHT22;3699;51.462;6.696;2024-03-23T00:58:40;8.10;99.90
7317;DHT22;3699;51.462;6.696;2024-03-23T01:01:06;8.10;99.90
7317;DHT22;3699;51.462;6.696;2024-03-23T01:03:33;8.10;99.90
7317;DHT22;3699;51.462;6.696;2024-03-23T01:05:59;7.60;99.90
7317;DHT22;3699;51.462;6.696;2024-03-23T01:08:26;8.10;99.90
7317;DHT22;3699;51.462;6.696;2024-03-23T01:10:57;8.00;99.90
7317;DHT22;3699;51.462;6.696;2024-03-23T01:13:23;8.00;99.90
7317;DHT22;3699;51.462;6.696;2024-03-23T01:15:49;8.00;99.90
7317;DHT22;3699;51.462;6.696;2024-03-23T01:18:17;8.00;99.90
7317;DHT22;3699;51.462;6.696;2024-03-23T01:20:43;8.00;99.90
7317;DHT22;3699;51.462;6.696;2024-03-23T01:23:10;8.00;99.90
7317;DHT22;3699;51.462;6.696;2024-03-23T01:25:35;7.90;99.90
7317;DHT22;3699;51.462;6.696;2024-03-23T01:28:04;7.90;99.90
7317;DHT22;3699;51.462;6.696;2024-03-23T01:30:30;7.90;99.90
7317;DHT22;3699;51.462;6.696;2024-03-23T01:32:57;7.90;99.90
7317;DHT22;3699;51.462;6.696;2024-03-23T01:35:22;7.90;99.90
7317;DHT22;3699;51.462;6.696;2024-03-23T01:37:49;7.90;99.90
7317;DHT22;3699;51.462;6.696;2024-03-23T01:40:16;7.90;99.90
7317;DHT22;3699;51.462;6.696;2024-03-23T01:42:55;7.90;99.90
7317;DHT22;3699;51.462;6.696;2024-03-23T01:45:22;7.90;99.90
7317;DHT22;3699;51.462;6.696;2024-03-23T01:47:49;7.90;99.90
7317;DHT22;3699;51.462;6.696;2024-03-23T01:50:15;7.90;99.90
7317;DHT22;3699;51.462;6.696;2024-03-23T01:52:42;8.00;99.90
7317;DHT22;3699;51.462;6.696;2024-03-23T01:55:08;8.00;99.90
7317;DHT22;3699;51.462;6.696;2024-03-23T01:57:35;7.90;99.90
7317;DHT22;3699;51.462;6.696;2024-03-23T02:00:01;7.90;99.90
7317;DHT22;3699;51.462;6.696;2024-03-23T02:02:29;7.90;99.90
7317;DHT22;3699;51.462;6.696;2024-03-23T02:04:55;7.90;99.90
7317;DHT22;3699;51.462;6.696;2024-03-23T02:07:21;7.90;99.90
7317;DHT22;3699;51.462;6.696;2024-03-23T02:09:49;7.90;99.90
7317;DHT22;3699;51.462;6.696;2024-03-23T02:12:16;7.90;99.90
7317;DHT22;3699;51.462;6.696;2024-03-23T02:14:42;7.90;99.90
7317;DHT22;3699;51.462;6.696;2024-03-23T02:17:09;7.90;99.90
7317;DHT22;3699;51.462;6.696;2024-03-23T02:19:36;7.90;99.90
7317;DHT22;3699;51.462;6.696;2024-03-23T02:22:03;7.90;99.90
7317;DHT22;3699;51.462;6.696;2024-03-23T02:24:30;8.00;99.90
7317;DHT22;3699;51.462;6.696;2024-03-23T02:26:57;7.90;99.90
7317;DHT22;3699;51.462;6.696;2024-03-23T02:29:23;7.90;99.90
7317;DHT22;3699;51.462;6.696;2024-03-23T02:31:49;7.90;99.90
7317;DHT22;3699;51.462;6.696;2024-03-23T02:34:15;7.90;99.90
7317;DHT22;3699;51.462;6.696;2024-03-23T02:36:42;7.90;99.90
7317;DHT22;3699;51.462;6.696;2024-03-23T02:39:08;7.90;99.90
7317;DHT22;3699;51.462;6.696;2024-03-23T02:41:36;8.00;99.90
7317;DHT22;3699;51.462;6.696;2024-03-23T02:44:02;7.80;99.90
7317;DHT22;3699;51.462;6.696;2024-03-23T02:46:29;7.80;99.90
7317;DHT22;3699;51.462;6.696;2024-03-23T02:48:55;8.00;99.90
7317;DHT22;3699;51.462;6.696;2024-03-23T02:51:22;7.80;99.90
7317;DHT22;3699;51.462;6.696;2024-03-23T02:53:48;7.80;99.90
7317;DHT22;3699;51.462;6.696;2024-03-23T02:56:15;7.80;99.90
7317;DHT22;3699;51.462;6.696;2024-03-23T02:58:43;7.80;99.90
7317;DHT22;3699;51.462;6.696;2024-03-23T03:01:10;7.80;99.90
7317;DHT22;3699;51.462;6.696;2024-03-23T03:03:36;7.80;99.90
7317;DHT22;3699;51.462;6.696;2024-03-23T03:06:03;7.80;99.90
7317;DHT22;3699;51.462;6.696;2024-03-23T03:08:29;7.80;99.90
7317;DHT22;3699;51.462;6.696;2024-03-23T03:10:56;7.70;99.90
7317;DHT22;3699;51.462;6.696;2024-03-23T03:13:23;7.70;99.90
7317;DHT22;3699;51.462;6.696;2024-03-23T03:15:51;7.70;99.90
7317;DHT22;3699;51.462;6.696;2024-03-23T03:18:16;7.80;99.90
7317;DHT22;3699;51.462;6.696;2024-03-23T03:20:43;7.70;99.90
7317;DHT22;3699;51.462;6.696;2024-03-23T03:23:09;7.70;99.90
7317;DHT22;3699;51.462;6.696;2024-03-23T03:25:36;7.70;99.90
7317;DHT22;3699;51.462;6.696;2024-03-23T03:28:02;7.70;99.90
7317;DHT22;3699;51.462;6.696;2024-03-23T03:30:29;7.70;99.90
7317;DHT22;3699;51.462;6.696;2024-03-23T03:32:56;7.70;99.90
7317;DHT22;3699;51.462;6.696;2024-03-23T03:35:23;7.70;99.90
7317;DHT22;3699;51.462;6.696;2024-03-23T03:37:49;7.70;99.90
7317;DHT22;3699;51.462;6.696;2024-03-23T03:40:16;7.70;99.90
7317;DHT22;3699;51.462;6.696;2024-03-23T03:42:41;7.70;99.90
7317;DHT22;3699;51.462;6.696;2024-03-23T03:45:08;7.70;99.90
7317;DHT22;3699;51.462;6.696;2024-03-23T03:47:34;7.70;99.90
7317;DHT22;3699;51.462;6.696;2024-03-23T03:50:02;7.60;99.90
7317;DHT22;3699;51.462;6.696;2024-03-23T03:52:28;7.60;99.90
7317;DHT22;3699;51.462;6.696;2024-03-23T03:55:02;7.60;99.90
7317;DHT22;3699;51.462;6.696;2024-03-23T03:57:28;7.50;99.90
7317;DHT22;3699;51.462;6.696;2024-03-23T03:59:54;7.60;99.90
7317;DHT22;3699;51.462;6.696;2024-03-23T04:02:20;7.60;99.90
7317;DHT22;3699;51.462;6.696;2024-03-23T04:04:47;7.60;99.90
7317;DHT22;3699;51.462;6.696;2024-03-23T04:07:14;7.50;99.90
7317;DHT22;3699;51.462;6.696;2024-03-23T04:09:42;7.60;99.90
7317;DHT22;3699;51.462;6.696;2024-03-23T04:12:09;7.50;99.90
7317;DHT22;3699;51.462;6.696;2024-03-23T04:14:36;7.50;99.90
7317;DHT22;3699;51.462;6.696;2024-03-23T04:17:02;7.50;99.90
7317;DHT22;3699;51.462;6.696;2024-03-23T04:19:29;7.50;99.90
7317;DHT22;3699;51.462;6.696;2024-03-23T04:21:54;7.50;99.90
7317;DHT22;3699;51.462;6.696;2024-03-23T04:24:22;7.50;99.90
7317;DHT22;3699;51.462;6.696;2024-03-23T04:26:48;7.50;99.90
7317;DHT22;3699;51.462;6.696;2024-03-23T04:29:15;7.50;99.90
7317;DHT22;3699;51.462;6.696;2024-03-23T04:31:40;7.50;99.90
7317;DHT22;3699;51.462;6.696;2024-03-23T04:34:07;7.50;99.90
7317;DHT22;3699;51.462;6.696;2024-03-23T04:36:33;7.50;99.90
7317;DHT22;3699;51.462;6.696;2024-03-23T04:39:00;7.40;99.90
7317;DHT22;3699;51.462;6.696;2024-03-23T04:41:28;7.40;99.90
7317;DHT22;3699;51.462;6.696;2024-03-23T04:43:55;7.40;99.90
7317;DHT22;3699;51.462;6.696;2024-03-23T04:46:22;7.40;99.90
7317;DHT22;3699;51.462;6.696;2024-03-23T04:48:48;7.50;99.90
7317;DHT22;3699;51.462;6.696;2024-03-23T04:51:20;7.40;99.90
7317;DHT22;3699;51.462;6.696;2024-03-23T04:53:47;7.50;99.90
7317;DHT22;3699;51.462;6.696;2024-03-23T04:56:14;7.60;99.90
7317;DHT22;3699;51.462;6.696;2024-03-23T04:58:41;7.50;99.90
7317;DHT22;3699;51.462;6.696;2024-03-23T05:01:08;7.50;99.90
7317;DHT22;3699;51.462;6.696;2024-03-23T05:03:34;7.50;99.90
7317;DHT22;3699;51.462;6.696;2024-03-23T05:06:01;7.50;99.90
7317;DHT22;3699;51.462;6.696;2024-03-23T05:08:27;7.50;99.90
7317;DHT22;3699;51.462;6.696;2024-03-23T05:10:54;7.50;99.90
7317;DHT22;3699;51.462;6.696;2024-03-23T05:13:20;7.50;99.90
7317;DHT22;3699;51.462;6.696;2024-03-23T05:15:52;7.50;99.90
7317;DHT22;3699;51.462;6.696;2024-03-23T05:18:18;7.50;99.90
7317;DHT22;3699;51.462;6.696;2024-03-23T05:20:45;7.50;99.90
7317;DHT22;3699;51.462;6.696;2024-03-23T05:23:10;7.50;99.90
7317;DHT22;3699;51.462;6.696;2024-03-23T05:25:37;7.50;99.90
7317;DHT22;3699;51.462;6.696;2024-03-23T05:28:03;7.40;99.90
7317;DHT22;3699;51.462;6.696;2024-03-23T05:30:31;7.40;99.90
7317;DHT22;3699;51.462;6.696;2024-03-23T05:32:58;7.40;99.90
7317;DHT22;3699;51.462;6.696;2024-03-23T05:35:24;7.40;99.90
7317;DHT22;3699;51.462;6.696;2024-03-23T05:40:17;7.40;99.90
7317;DHT22;3699;51.462;6.696;2024-03-23T05:42:43;7.40;99.90
7317;DHT22;3699;51.462;6.696;2024-03-23T05:45:10;7.40;99.90
7317;DHT22;3699;51.462;6.696;2024-03-23T05:47:36;7.40;99.90
7317;DHT22;3699;51.462;6.696;2024-03-23T05:50:05;7.50;99.90
7317;DHT22;3699;51.462;6.696;2024-03-23T05:52:31;7.40;99.90
7317;DHT22;3699;51.462;6.696;2024-03-23T05:54:58;7.40;99.90
7317;DHT22;3699;51.462;6.696;2024-03-23T05:57:24;7.40;99.90
7317;DHT22;3699;51.462;6.696;2024-03-23T05:59:51;7.40;99.90
7317;DHT22;3699;51.462;6.696;2024-03-23T06:02:17;7.30;99.90
7317;DHT22;3699;51.462;6.696;2024-03-23T06:04:45;7.40;99.90
7317;DHT22;3699;51.462;6.696;2024-03-23T06:07:12;7.30;99.90
7317;DHT22;3699;51.462;6.696;2024-03-23T06:09:40;7.20;99.90
7317;DHT22;3699;51.462;6.696;2024-03-23T06:12:06;7.20;99.90
7317;DHT22;3699;51.462;6.696;2024-03-23T06:14:33;7.20;99.90
7317;DHT22;3699;51.462;6.696;2024-03-23T06:16:59;7.20;99.90
7317;DHT22;3699;51.462;6.696;2024-03-23T06:19:27;7.20;99.90
7317;DHT22;3699;51.462;6.696;2024-03-23T06:21:53;7.30;99.90
7317;DHT22;3699;51.462;6.696;2024-03-23T06:24:21;7.50;99.90
7317;DHT22;3699;51.462;6.696;2024-03-23T06:26:47;7.70;99.90
7317;DHT22;3699;51.462;6.696;2024-03-23T06:29:14;8.00;99.90
7317;DHT22;3699;51.462;6.696;2024-03-23T06:31:40;8.30;99.90
7317;DHT22;3699;51.462;6.696;2024-03-23T06:34:06;8.70;99.90
7317;DHT22;3699;51.462;6.696;2024-03-23T06:36:32;9.10;99.90
7317;DHT22;3699;51.462;6.696;2024-03-23T06:38:59;9.50;99.90
7317;DHT22;3699;51.462;6.696;2024-03-23T06:41:26;9.90;99.90
7317;DHT22;3699;51.462;6.696;2024-03-23T06:43:53;10.10;99.90
7317;DHT22;3699;51.462;6.696;2024-03-23T06:46:19;10.50;99.90
7317;DHT22;3699;51.462;6.696;2024-03-23T06:48:46;10.80;99.90
7317;DHT22;3699;51.462;6.696;2024-03-23T06:51:11;11.00;99.90
7317;DHT22;3699;51.462;6.696;2024-03-23T06:53:38;11.30;99.90
7317;DHT22;3699;51.462;6.696;2024-03-23T06:56:04;11.50;99.90
7317;DHT22;3699;51.462;6.696;2024-03-23T06:58:32;11.70;99.90
7317;DHT22;3699;51.462;6.696;2024-03-23T07:00:58;11.90;99.90
7317;DHT22;3699;51.462;6.696;2024-03-23T07:03:25;12.00;99.90
7317;DHT22;3699;51.462;6.696;2024-03-23T07:05:51;12.20;99.90
7317;DHT22;3699;51.462;6.696;2024-03-23T07:08:18;12.40;99.90
7317;DHT22;3699;51.462;6.696;2024-03-23T07:10:47;12.60;99.90
7317;DHT22;3699;51.462;6.696;2024-03-23T07:13:15;12.70;99.90
7317;DHT22;3699;51.462;6.696;2024-03-23T07:15:42;12.90;99.90
7317;DHT22;3699;51.462;6.696;2024-03-23T07:18:08;12.90;99.90
7317;DHT22;3699;51.462;6.696;2024-03-23T07:20:34;13.00;99.90
7317;DHT22;3699;51.462;6.696;2024-03-23T07:23:01;13.10;99.90
7317;DHT22;3699;51.462;6.696;2024-03-23T07:25:27;13.20;99.90
7317;DHT22;3699;51.462;6.696;2024-03-23T07:27:54;13.40;99.90
7317;DHT22;3699;51.462;6.696;2024-03-23T07:30:20;13.50;99.90
7317;DHT22;3699;51.462;6.696;2024-03-23T07:32:48;13.60;99.90
7317;DHT22;3699;51.462;6.696;2024-03-23T07:35:14;13.70;99.90
7317;DHT22;3699;51.462;6.696;2024-03-23T07:37:42;13.70;99.90
7317;DHT22;3699;51.462;6.696;2024-03-23T07:40:09;13.80;99.90
7317;DHT22;3699;51.462;6.696;2024-03-23T07:42:37;13.90;99.90
7317;DHT22;3699;51.462;6.696;2024-03-23T07:45:03;14.00;99.90
7317;DHT22;3699;51.462;6.696;2024-03-23T07:47:30;14.00;99.90
7317;DHT22;3699;51.462;6.696;2024-03-23T07:49:58;14.10;99.90
7317;DHT22;3699;51.462;6.696;2024-03-23T07:52:27;14.20;99.90
7317;DHT22;3699;51.462;6.696;2024-03-23T07:54:53;14.20;99.50
7317;DHT22;3699;51.462;6.696;2024-03-23T07:57:19;14.20;99.90
7317;DHT22;3699;51.462;6.696;2024-03-23T07:59:45;14.10;97.80
7317;DHT22;3699;51.462;6.696;2024-03-23T08:02:12;14.10;99.40
7317;DHT22;3699;51.462;6.696;2024-03-23T08:04:38;14.00;99.90
7317;DHT22;3699;51.462;6.696;2024-03-23T08:07:06;14.00;99.90
7317;DHT22;3699;51.462;6.696;2024-03-23T08:09:31;14.00;99.90
7317;DHT22;3699;51.462;6.696;2024-03-23T08:11:58;13.90;99.90
7317;DHT22;3699;51.462;6.696;2024-03-23T08:14:24;13.80;99.90
7317;DHT22;3699;51.462;6.696;2024-03-23T08:16:51;13.70;99.90
7317;DHT22;3699;51.462;6.696;2024-03-23T08:19:16;13.40;99.90
7317;DHT22;3699;51.462;6.696;2024-03-23T08:21:43;13.30;99.90
7317;DHT22;3699;51.462;6.696;2024-03-23T08:24:10;13.00;99.90
7317;DHT22;3699;51.462;6.696;2024-03-23T08:26:37;12.90;99.90
7317;DHT22;3699;51.462;6.696;2024-03-23T08:29:03;12.70;99.90
7317;DHT22;3699;51.462;6.696;2024-03-23T08:31:30;12.40;99.90
7317;DHT22;3699;51.462;6.696;2024-03-23T08:33:56;12.10;99.90
7317;DHT22;3699;51.462;6.696;2024-03-23T08:36:22;11.80;99.90
7317;DHT22;3699;51.462;6.696;2024-03-23T08:38:49;11.50;99.90
7317;DHT22;3699;51.462;6.696;2024-03-23T08:41:20;11.20;99.90
7317;DHT22;3699;51.462;6.696;2024-03-23T08:43:46;10.80;99.90
7317;DHT22;3699;51.462;6.696;2024-03-23T08:46:13;10.60;99.90
7317;DHT22;3699;51.462;6.696;2024-03-23T08:48:41;10.40;99.90
7317;DHT22;3699;51.462;6.696;2024-03-23T08:51:10;10.40;99.90
7317;DHT22;3699;51.462;6.696;2024-03-23T08:53:36;10.30;99.90
7317;DHT22;3699;51.462;6.696;2024-03-23T08:56:04;10.40;99.90
7317;DHT22;3699;51.462;6.696;2024-03-23T08:58:32;10.60;99.90
7317;DHT22;3699;51.462;6.696;2024-03-23T09:01:03;10.90;99.90
7317;DHT22;3699;51.462;6.696;2024-03-23T09:03:29;11.30;99.90
7317;DHT22;3699;51.462;6.696;2024-03-23T09:05:56;11.70;99.90
7317;DHT22;3699;51.462;6.696;2024-03-23T09:08:23;12.00;99.90
7317;DHT22;3699;51.462;6.696;2024-03-23T09:10:51;12.30;99.90
7317;DHT22;3699;51.462;6.696;2024-03-23T09:13:17;12.60;99.90
7317;DHT22;3699;51.462;6.696;2024-03-23T09:15:48;12.70;99.90
7317;DHT22;3699;51.462;6.696;2024-03-23T09:18:14;12.70;99.90
7317;DHT22;3699;51.462;6.696;2024-03-23T09:20:41;12.70;99.90
7317;DHT22;3699;51.462;6.696;2024-03-23T09:23:07;12.60;99.60
7317;DHT22;3699;51.462;6.696;2024-03-23T09:25:36;12.40;99.90
7317;DHT22;3699;51.462;6.696;2024-03-23T09:28:04;12.20;99.90
7317;DHT22;3699;51.462;6.696;2024-03-23T09:30:30;12.00;99.90
7317;DHT22;3699;51.462;6.696;2024-03-23T09:32:59;12.10;99.90
7317;DHT22;3699;51.462;6.696;2024-03-23T09:35:26;11.90;99.90
7317;DHT22;3699;51.462;6.696;2024-03-23T09:37:53;12.10;99.90
7317;DHT22;3699;51.462;6.696;2024-03-23T09:40:20;12.30;99.90
7317;DHT22;3699;51.462;6.696;2024-03-23T09:42:50;12.10;99.90
7317;DHT22;3699;51.462;6.696;2024-03-23T09:45:17;12.00;99.90
7317;DHT22;3699;51.462;6.696;2024-03-23T09:47:44;11.90;99.90
7317;DHT22;3699;51.462;6.696;2024-03-23T09:50:13;11.90;99.90
7317;DHT22;3699;51.462;6.696;2024-03-23T09:52:39;11.90;99.90
7317;DHT22;3699;51.462;6.696;2024-03-23T09:55:08;12.10;99.90
7317;DHT22;3699;51.462;6.696;2024-03-23T09:57:34;12.50;99.90
7317;DHT22;3699;51.462;6.696;2024-03-23T10:00:00;12.80;99.40
7317;DHT22;3699;51.462;6.696;2024-03-23T10:02:28;12.90;80.40
7317;DHT22;3699;51.462;6.696;2024-03-23T10:04:54;13.20;74.80
7317;DHT22;3699;51.462;6.696;2024-03-23T10:07:23;13.40;68.00
7317;DHT22;3699;51.462;6.696;2024-03-23T10:09:49;13.60;66.60
7317;DHT22;3699;51.462;6.696;2024-03-23T10:12:18;13.80;61.20
7317;DHT22;3699;51.462;6.696;2024-03-23T10:14:44;13.80;42.60
7317;DHT22;3699;51.462;6.696;2024-03-23T10:17:12;13.70;47.30
7317;DHT22;3699;51.462;6.696;2024-03-23T10:19:39;13.70;45.00
7317;DHT22;3699;51.462;6.696;2024-03-23T10:22:07;13.50;37.40
7317;DHT22;3699;51.462;6.696;2024-03-23T10:24:35;13.20;42.50
7317;DHT22;3699;51.462;6.696;2024-03-23T10:27:01;12.90;44.30
7317;DHT22;3699;51.462;6.696;2024-03-23T10:29:27;12.70;50.40
7317;DHT22;3699;51.462;6.696;2024-03-23T10:31:55;12.30;57.30
7317;DHT22;3699;51.462;6.696;2024-03-23T10:34:32;11.70;81.40
7317;DHT22;3699;51.462;6.696;2024-03-23T10:37:01;11.20;96.30
7317;DHT22;3699;51.462;6.696;2024-03-23T10:39:27;10.70;99.90
7317;DHT22;3699;51.462;6.696;2024-03-23T10:41:56;10.30;99.90
7317;DHT22;3699;51.462;6.696;2024-03-23T10:44:23;9.90;99.90
7317;DHT22;3699;51.462;6.696;2024-03-23T10:46:51;9.70;99.90
7317;DHT22;3699;51.462;6.696;2024-03-23T10:49:24;9.40;99.90
7317;DHT22;3699;51.462;6.696;2024-03-23T10:51:51;9.40;99.90
7317;DHT22;3699;51.462;6.696;2024-03-23T10:54:18;9.30;99.90
7317;DHT22;3699;51.462;6.696;2024-03-23T10:56:45;9.20;99.90
7317;DHT22;3699;51.462;6.696;2024-03-23T10:59:12;9.50;99.90
7317;DHT22;3699;51.462;6.696;2024-03-23T11:01:54;9.40;99.90
7317;DHT22;3699;51.462;6.696;2024-03-23T11:04:29;9.50;99.90
7317;DHT22;3699;51.462;6.696;2024-03-23T11:06:57;9.70;99.90
7317;DHT22;3699;51.462;6.696;2024-03-23T11:09:41;9.90;99.90
7317;DHT22;3699;51.462;6.696;2024-03-23T11:12:29;10.00;99.90
7317;DHT22;3699;51.462;6.696;2024-03-23T11:15:01;10.20;99.90
7317;DHT22;3699;51.462;6.696;2024-03-23T11:17:28;10.40;99.90
7317;DHT22;3699;51.462;6.696;2024-03-23T11:19:55;10.70;99.90
7317;DHT22;3699;51.462;6.696;2024-03-23T11:22:39;10.80;99.90
7317;DHT22;3699;51.462;6.696;2024-03-23T11:25:12;11.10;99.90
7317;DHT22;3699;51.462;6.696;2024-03-23T11:27:39;11.30;99.90
7317;DHT22;3699;51.462;6.696;2024-03-23T11:30:16;11.50;99.90
7317;DHT22;3699;51.462;6.696;2024-03-23T11:32:45;11.70;99.90
7317;DHT22;3699;51.462;6.696;2024-03-23T11:35:25;11.80;99.90
7317;DHT22;3699;51.462;6.696;2024-03-23T11:38:05;12.00;99.90
7317;DHT22;3699;51.462;6.696;2024-03-23T11:40:32;12.20;98.50
7317;DHT22;3699;51.462;6.696;2024-03-23T11:43:00;12.30;98.90
7317;DHT22;3699;51.462;6.696;2024-03-23T11:45:27;12.40;94.30
7317;DHT22;3699;51.462;6.696;2024-03-23T11:48:05;12.50;60.00
7317;DHT22;3699;51.462;6.696;2024-03-23T11:50:32;12.60;59.30
7317;DHT22;3699;51.462;6.696;2024-03-23T11:53:15;12.50;43.90
7317;DHT22;3699;51.462;6.696;2024-03-23T11:55:43;12.20;37.00
7317;DHT22;3699;51.462;6.696;2024-03-23T11:58:10;11.90;36.20
7317;DHT22;3699;51.462;6.696;2024-03-23T12:00:37;11.70;39.80
7317;DHT22;3699;51.462;6.696;2024-03-23T12:03:05;11.50;45.60
7317;DHT22;3699;51.462;6.696;2024-03-23T12:05:31;11.30;47.50
7317;DHT22;3699;51.462;6.696;2024-03-23T12:08:16;11.30;67.50
7317;DHT22;3699;51.462;6.696;2024-03-23T12:10:44;11.50;73.30
7317;DHT22;3699;51.462;6.696;2024-03-23T12:13:11;11.60;69.60
7317;DHT22;3699;51.462;6.696;2024-03-23T12:15:38;11.60;56.70
7317;DHT22;3699;51.462;6.696;2024-03-23T12:18:08;11.60;54.50
7317;DHT22;3699;51.462;6.696;2024-03-23T12:20:34;11.60;53.40
7317;DHT22;3699;51.462;6.696;2024-03-23T12:23:08;11.70;51.30
7317;DHT22;3699;51.462;6.696;2024-03-23T12:25:34;11.80;57.00
7317;DHT22;3699;51.462;6.696;2024-03-23T12:28:02;11.70;64.30
7317;DHT22;3699;51.462;6.696;2024-03-23T12:30:28;11.70;70.10
7317;DHT22;3699;51.462;6.696;2024-03-23T12:32:56;11.80;84.60
7317;DHT22;3699;51.462;6.696;2024-03-23T12:35:22;11.80;86.10
7317;DHT22;3699;51.462;6.696;2024-03-23T12:37:49;11.90;80.00
7317;DHT22;3699;51.462;6.696;2024-03-23T12:40:14;12.00;69.70
7317;DHT22;3699;51.462;6.696;2024-03-23T12:42:41;12.00;69.00
7317;DHT22;3699;51.462;6.696;2024-03-23T12:45:08;11.80;71.90
7317;DHT22;3699;51.462;6.696;2024-03-23T12:47:34;11.50;86.60
7317;DHT22;3699;51.462;6.696;2024-03-23T12:50:02;11.20;89.50
7317;DHT22;3699;51.462;6.696;2024-03-23T12:52:29;10.90;95.40
7317;DHT22;3699;51.462;6.696;2024-03-23T12:54:55;10.60;99.90
7317;DHT22;3699;51.462;6.696;2024-03-23T12:57:23;10.60;99.90
7317;DHT22;3699;51.462;6.696;2024-03-23T12:59:49;10.60;99.90
7317;DHT22;3699;51.462;6.696;2024-03-23T13:02:18;10.70;99.90
7317;DHT22;3699;51.462;6.696;2024-03-23T13:04:45;10.70;99.90
7317;DHT22;3699;51.462;6.696;2024-03-23T13:07:13;10.70;99.90
7317;DHT22;3699;51.462;6.696;2024-03-23T13:09:39;10.80;99.90
7317;DHT22;3699;51.462;6.696;2024-03-23T13:12:06;10.70;99.90
7317;DHT22;3699;51.462;6.696;2024-03-23T13:14:32;10.60;99.90
7317;DHT22;3699;51.462;6.696;2024-03-23T13:16:59;10.60;99.90
7317;DHT22;3699;51.462;6.696;2024-03-23T13:19:25;10.50;99.90
7317;DHT22;3699;51.462;6.696;2024-03-23T13:21:53;10.60;99.90
7317;DHT22;3699;51.462;6.696;2024-03-23T13:24:22;10.70;99.90
7317;DHT22;3699;51.462;6.696;2024-03-23T13:26:50;10.80;99.90
7317;DHT22;3699;51.462;6.696;2024-03-23T13:29:16;10.90;96.40
7317;DHT22;3699;51.462;6.696;2024-03-23T13:31:42;10.70;93.60
7317;DHT22;3699;51.462;6.696;2024-03-23T13:34:08;10.60;95.20
7317;DHT22;3699;51.462;6.696;2024-03-23T13:36:35;10.50;88.50
7317;DHT22;3699;51.462;6.696;2024-03-23T13:39:01;10.40;75.70
7317;DHT22;3699;51.462;6.696;2024-03-23T13:41:32;10.40;75.50
7317;DHT22;3699;51.462;6.696;2024-03-23T13:43:57;10.40;71.60
7317;DHT22;3699;51.462;6.696;2024-03-23T13:46:24;10.60;65.60
7317;DHT22;3699;51.462;6.696;2024-03-23T13:48:50;10.70;50.20
7317;DHT22;3699;51.462;6.696;2024-03-23T13:51:23;10.80;42.40
7317;DHT22;3699;51.462;6.696;2024-03-23T13:53:50;10.90;42.80
7317;DHT22;3699;51.462;6.696;2024-03-23T13:56:17;11.00;37.50
7317;DHT22;3699;51.462;6.696;2024-03-23T13:58:44;11.10;35.10
7317;DHT22;3699;51.462;6.696;2024-03-23T14:01:13;11.10;35.70
7317;DHT22;3699;51.462;6.696;2024-03-23T14:03:39;11.10;32.60
7317;DHT22;3699;51.462;6.696;2024-03-23T14:06:06;11.00;36.20
7317;DHT22;3699;51.462;6.696;2024-03-23T14:08:33;11.10;39.60
7317;DHT22;3699;51.462;6.696;2024-03-23T14:11:02;10.90;45.30
7317;DHT22;3699;51.462;6.696;2024-03-23T14:13:29;10.80;40.20
7317;DHT22;3699;51.462;6.696;2024-03-23T14:15:58;10.70;48.50
7317;DHT22;3699;51.462;6.696;2024-03-23T14:18:24;10.60;48.40
7317;DHT22;3699;51.462;6.696;2024-03-23T14:20:52;10.60;55.60
7317;DHT22;3699;51.462;6.696;2024-03-23T14:23:18;10.70;67.70
7317;DHT22;3699;51.462;6.696;2024-03-23T14:25:45;11.00;57.40
7317;DHT22;3699;51.462;6.696;2024-03-23T14:28:11;11.10;54.20
7317;DHT22;3699;51.462;6.696;2024-03-23T14:30:41;11.20;49.70
7317;DHT22;3699;51.462;6.696;2024-03-23T14:33:09;11.20;35.70
7317;DHT22;3699;51.462;6.696;2024-03-23T14:35:36;11.30;32.20
7317;DHT22;3699;51.462;6.696;2024-03-23T14:38:02;11.20;36.80
7317;DHT22;3699;51.462;6.696;2024-03-23T14:40:28;11.20;35.60
7317;DHT22;3699;51.462;6.696;2024-03-23T14:42:55;11.10;32.60
7317;DHT22;3699;51.462;6.696;2024-03-23T14:45:22;10.80;38.20
7317;DHT22;3699;51.462;6.696;2024-03-23T14:47:49;10.80;33.50
7317;DHT22;3699;51.462;6.696;2024-03-23T14:50:17;10.60;31.50
7317;DHT22;3699;51.462;6.696;2024-03-23T14:52:44;10.50;34.30
7317;DHT22;3699;51.462;6.696;2024-03-23T14:55:11;10.40;36.20
7317;DHT22;3699;51.462;6.696;2024-03-23T15:00:07;9.50;43.20
7317;DHT22;3699;51.462;6.696;2024-03-23T15:02:33;10.50;47.60
7317;DHT22;3699;51.462;6.696;2024-03-23T15:05:01;10.60;49.20
7317;DHT22;3699;51.462;6.696;2024-03-23T15:07:28;10.70;48.20
7317;DHT22;3699;51.462;6.696;2024-03-23T15:09:54;10.80;49.60
7317;DHT22;3699;51.462;6.696;2024-03-23T15:12:20;10.90;48.30
7317;DHT22;3699;51.462;6.696;2024-03-23T15:14:47;10.90;51.50
7317;DHT22;3699;51.462;6.696;2024-03-23T15:17:13;10.90;51.60
7317;DHT22;3699;51.462;6.696;2024-03-23T15:19:40;10.90;49.80
7317;DHT22;3699;51.462;6.696;2024-03-23T15:22:07;10.70;49.70
7317;DHT22;3699;51.462;6.696;2024-03-23T15:24:35;11.00;45.60
7317;DHT22;3699;51.462;6.696;2024-03-23T15:27:01;10.60;46.80
7317;DHT22;3699;51.462;6.696;2024-03-23T15:29:28;10.60;48.00
7317;DHT22;3699;51.462;6.696;2024-03-23T15:31:54;10.60;50.90
7317;DHT22;3699;51.462;6.696;2024-03-23T15:34:21;10.40;51.20
7317;DHT22;3699;51.462;6.696;2024-03-23T15:36:47;10.40;51.70
7317;DHT22;3699;51.462;6.696;2024-03-23T15:39:14;10.30;45.00
7317;DHT22;3699;51.462;6.696;2024-03-23T15:41:44;10.30;49.80
7317;DHT22;3699;51.462;6.696;2024-03-23T15:44:10;10.30;54.90
7317;DHT22;3699;51.462;6.696;2024-03-23T15:46:36;10.20;62.90
7317;DHT22;3699;51.462;6.696;2024-03-23T15:49:03;10.30;57.50
7317;DHT22;3699;51.462;6.696;2024-03-23T15:51:29;10.20;57.00
7317;DHT22;3699;51.462;6.696;2024-03-23T15:53:58;10.10;54.90
7317;DHT22;3699;51.462;6.696;2024-03-23T15:56:24;10.00;55.20
7317;DHT22;3699;51.462;6.696;2024-03-23T15:58:52;9.90;61.60
7317;DHT22;3699;51.462;6.696;2024-03-23T16:01:18;9.80;69.00
7317;DHT22;3699;51.462;6.696;2024-03-23T16:03:46;9.80;70.20
7317;DHT22;3699;51.462;6.696;2024-03-23T16:06:12;9.80;74.20
7317;DHT22;3699;51.462;6.696;2024-03-23T16:08:38;9.80;74.00
7317;DHT22;3699;51.462;6.696;2024-03-23T16:11:06;9.80;80.30
7317;DHT22;3699;51.462;6.696;2024-03-23T16:13:33;9.80;79.00
7317;DHT22;3699;51.462;6.696;2024-03-23T16:16:01;10.40;72.60
7317;DHT22;3699;51.462;6.696;2024-03-23T16:18:30;9.80;73.90
7317;DHT22;3699;51.462;6.696;2024-03-23T16:20:57;9.80;72.60
7317;DHT22;3699;51.462;6.696;2024-03-23T16:23:24;9.80;72.10
7317;DHT22;3699;51.462;6.696;2024-03-23T16:25:51;9.80;73.90
7317;DHT22;3699;51.462;6.696;2024-03-23T16:28:23;9.80;64.00
7317;DHT22;3699;51.462;6.696;2024-03-23T16:30:56;9.80;54.50
7317;DHT22;3699;51.462;6.696;2024-03-23T16:33:25;9.70;58.70
7317;DHT22;3699;51.462;6.696;2024-03-23T16:36:00;9.60;58.70
7317;DHT22;3699;51.462;6.696;2024-03-23T16:38:28;9.50;66.70
7317;DHT22;3699;51.462;6.696;2024-03-23T16:40:55;9.40;66.00
7317;DHT22;3699;51.462;6.696;2024-03-23T16:43:21;9.40;62.40
7317;DHT22;3699;51.462;6.696;2024-03-23T16:45:58;9.30;79.70
7317;DHT22;3699;51.462;6.696;2024-03-23T16:48:27;9.20;84.20
7317;DHT22;3699;51.462;6.696;2024-03-23T16:50:56;9.00;92.80
7317;DHT22;3699;51.462;6.696;2024-03-23T16:53:24;8.90;96.90
7317;DHT22;3699;51.462;6.696;2024-03-23T16:55:54;8.90;99.90
7317;DHT22;3699;51.462;6.696;2024-03-23T16:58:23;8.70;99.90
7317;DHT22;3699;51.462;6.696;2024-03-23T17:00:48;8.50;99.90
7317;DHT22;3699;51.462;6.696;2024-03-23T17:03:15;8.30;99.90
7317;DHT22;3699;51.462;6.696;2024-03-23T17:05:42;8.30;99.90
7317;DHT22;3699;51.462;6.696;2024-03-23T17:08:09;8.10;99.90